Time;durP1;ratioP1;P1;durP2;ratioP2;P2;SDS_P1;SDS_P2;PMS_P1;PMS_P2;Temp;Humidity;BMP_temperature;BMP_pressure;BME280_temperature;BME280_humidity;BME280_pressure;Samples;Min_cycle;Max_cycle;Signal;HPM_P1;HPM_P2
2023/05/06 00:02:00;;;;;;;24.33;14.52;;;;;;;;;;4936585;28;20109;-83
2023/05/06 00:04:27;;;;;;;28.40;14.07;;;;;;;;;;4936342;28;20059;-83
2023/05/06 00:06:55;;;;;;;29.15;14.88;;;;;;;;;;4941749;28;20035;-81
2023/05/06 00:09:23;;;;;;;26.15;15.32;;;;;;;;;;4944201;28;20051;-82
2023/05/06 00:11:50;;;;;;;24.63;14.07;;;;;;;;;;4950488;28;20150;-83
2023/05/06 00:14:16;;;;;;;21.23;13.60;;;;;;;;;;4954417;28;20043;-82
2023/05/06 00:16:43;;;;;;;22.50;13.95;;;;;;;;;;4952777;28;20090;-81
2023/05/06 00:19:10;;;;;;;22.40;14.40;;;;;;;;;;4939847;28;20130;-81
2023/05/06 00:21:37;;;;;;;24.77;14.88;;;;;;;;;;4955761;28;20071;-82
2023/05/06 00:24:08;;;;;;;26.67;14.75;;;;;;;;;;4943481;29;20056;-82
2023/05/06 00:26:35;;;;;;;22.70;14.57;;;;;;;;;;4957962;28;20570;-84
2023/05/06 00:29:02;;;;;;;31.33;15.05;;;;;;;;;;4963318;28;20111;-83
2023/05/06 00:31:28;;;;;;;25.60;15.35;;;;;;;;;;4961965;28;20407;-83
2023/05/06 00:33:55;;;;;;;27.17;14.38;;;;;;;;;;4976446;28;20576;-83
2023/05/06 00:36:21;;;;;;;25.65;14.13;;;;;;;;;;4959890;28;20047;-84
2023/05/06 00:38:48;;;;;;;28.60;15.20;;;;;;;;;;4959285;29;20577;-82
2023/05/06 00:41:15;;;;;;;23.17;14.27;;;;;;;;;;4961751;28;20050;-81
2023/05/06 00:43:41;;;;;;;25.83;15.77;;;;;;;;;;4942253;28;20050;-81
2023/05/06 00:46:08;;;;;;;27.10;14.98;;;;;;;;;;4958788;28;20102;-81
2023/05/06 00:48:35;;;;;;;27.67;14.93;;;;;;;;;;4959125;28;20057;-81
2023/05/06 00:51:02;;;;;;;30.25;15.25;;;;;;;;;;4974173;28;20040;-80
2023/05/06 00:53:29;;;;;;;27.42;15.10;;;;;;;;;;4957109;28;20146;-81
2023/05/06 00:55:56;;;;;;;29.38;16.05;;;;;;;;;;4974687;28;20149;-81
2023/05/06 00:58:23;;;;;;;28.13;16.13;;;;;;;;;;4958167;28;20043;-81
2023/05/06 01:00:50;;;;;;;25.80;15.82;;;;;;;;;;4939159;28;20077;-81
2023/05/06 01:03:17;;;;;;;28.00;16.13;;;;;;;;;;4937957;29;20098;-81
2023/05/06 01:05:53;;;;;;;25.00;16.50;;;;;;;;;;4956890;28;20041;-81
2023/05/06 01:08:33;;;;;;;32.03;15.57;;;;;;;;;;4972272;28;20049;-81
2023/05/06 01:11:05;;;;;;;24.27;14.98;;;;;;;;;;4958242;28;20575;-80
2023/05/06 01:13:33;;;;;;;25.25;14.75;;;;;;;;;;4974810;28;20059;-83
2023/05/06 01:16:00;;;;;;;25.58;15.50;;;;;;;;;;4973500;28;20061;-83
2023/05/06 01:18:30;;;;;;;25.13;14.80;;;;;;;;;;4990916;28;20043;-84
2023/05/06 01:20:58;;;;;;;22.83;15.02;;;;;;;;;;4990910;28;20046;-83
2023/05/06 01:23:25;;;;;;;24.05;15.00;;;;;;;;;;4962195;28;20167;-81
2023/05/06 01:25:52;;;;;;;27.67;15.40;;;;;;;;;;4959276;28;20111;-83
2023/05/06 01:28:19;;;;;;;27.13;16.00;;;;;;;;;;4972567;28;20082;-83
2023/05/06 01:31:02;;;;;;;28.33;15.45;;;;;;;;;;4955678;28;20055;-85
2023/05/06 01:33:45;;;;;;;27.67;15.52;;;;;;;;;;4955851;28;20043;-84
2023/05/06 01:36:20;;;;;;;24.90;15.10;;;;;;;;;;4955197;28;20051;-82
2023/05/06 01:38:53;;;;;;;23.33;14.98;;;;;;;;;;4953956;28;20057;-83
2023/05/06 01:41:21;;;;;;;23.73;14.63;;;;;;;;;;4953069;28;20141;-83
2023/05/06 01:43:49;;;;;;;21.60;13.68;;;;;;;;;;4953963;28;20043;-82
2023/05/06 01:46:19;;;;;;;23.00;13.93;;;;;;;;;;4954924;28;20085;-84
2023/05/06 01:48:47;;;;;;;20.25;12.45;;;;;;;;;;4939294;28;20054;-83
2023/05/06 01:51:14;;;;;;;23.08;13.63;;;;;;;;;;4953298;28;20039;-83
2023/05/06 01:53:41;;;;;;;25.27;13.07;;;;;;;;;;4953811;28;20407;-83
2023/05/06 01:56:07;;;;;;;24.13;13.25;;;;;;;;;;4938227;28;20531;-82
2023/05/06 01:58:34;;;;;;;20.75;12.43;;;;;;;;;;4952394;28;20126;-83
2023/05/06 02:01:01;;;;;;;20.23;11.60;;;;;;;;;;4952849;28;20153;-83
2023/05/06 02:03:27;;;;;;;16.10;10.55;;;;;;;;;;4938463;28;20062;-82
2023/05/06 02:05:54;;;;;;;24.88;12.25;;;;;;;;;;4952841;28;20097;-82
2023/05/06 02:08:22;;;;;;;19.63;11.80;;;;;;;;;;4937201;28;20078;-83
2023/05/06 02:10:49;;;;;;;16.55;11.43;;;;;;;;;;4953264;28;20058;-82
2023/05/06 02:13:16;;;;;;;19.50;12.02;;;;;;;;;;4966562;28;20062;-81
2023/05/06 02:15:44;;;;;;;18.08;11.95;;;;;;;;;;4953975;28;20152;-80
2023/05/06 02:18:15;;;;;;;19.40;12.23;;;;;;;;;;4952663;28;20055;-81
2023/05/06 02:20:41;;;;;;;21.38;11.95;;;;;;;;;;4954155;28;20054;-81
2023/05/06 02:23:13;;;;;;;21.75;12.20;;;;;;;;;;4949455;28;20044;-84
2023/05/06 02:25:39;;;;;;;20.02;12.20;;;;;;;;;;4940966;28;20050;-82
2023/05/06 02:28:06;;;;;;;23.08;14.45;;;;;;;;;;4953388;28;20066;-82
2023/05/06 02:30:41;;;;;;;22.33;13.98;;;;;;;;;;4949034;28;20539;-82
2023/05/06 02:33:14;;;;;;;23.55;15.45;;;;;;;;;;4950591;28;20443;-82
2023/05/06 02:35:40;;;;;;;28.17;15.95;;;;;;;;;;4948290;28;20497;-83
2023/05/06 02:38:07;;;;;;;25.95;15.68;;;;;;;;;;4948714;28;20067;-82
2023/05/06 02:40:34;;;;;;;30.92;15.95;;;;;;;;;;4947398;28;20354;-81
2023/05/06 02:43:03;;;;;;;26.60;17.25;;;;;;;;;;4946157;28;20044;-82
2023/05/06 02:45:33;;;;;;;33.08;17.98;;;;;;;;;;4930032;28;20133;-81
2023/05/06 02:48:02;;;;;;;29.83;17.75;;;;;;;;;;4948049;28;20111;-81
2023/05/06 02:50:29;;;;;;;31.17;18.80;;;;;;;;;;4916205;29;20043;-81
2023/05/06 02:52:56;;;;;;;34.65;19.55;;;;;;;;;;4930937;28;20101;-81
2023/05/06 02:55:22;;;;;;;33.33;20.48;;;;;;;;;;4946957;28;20055;-83
2023/05/06 02:57:49;;;;;;;31.88;20.58;;;;;;;;;;4947455;28;20497;-82
2023/05/06 03:00:16;;;;;;;37.72;22.05;;;;;;;;;;4915035;28;20512;-83
2023/05/06 03:02:43;;;;;;;40.17;23.13;;;;;;;;;;4932099;28;20051;-83
2023/05/06 03:05:10;;;;;;;44.95;24.33;;;;;;;;;;4916381;28;20158;-83
2023/05/06 03:07:37;;;;;;;46.83;26.08;;;;;;;;;;4932140;28;20082;-82
2023/05/06 03:10:04;;;;;;;48.10;27.58;;;;;;;;;;4931494;28;20055;-82
2023/05/06 03:12:37;;;;;;;47.90;26.67;;;;;;;;;;4948319;28;20067;-83
2023/05/06 03:15:11;;;;;;;52.42;27.50;;;;;;;;;;4946926;28;20482;-83
2023/05/06 03:17:38;;;;;;;54.38;27.98;;;;;;;;;;4915774;28;20067;-82
2023/05/06 03:20:07;;;;;;;48.55;27.00;;;;;;;;;;4947045;28;20400;-82
2023/05/06 03:22:36;;;;;;;49.33;27.58;;;;;;;;;;4918393;28;20560;-83
2023/05/06 03:25:03;;;;;;;42.80;24.92;;;;;;;;;;4956305;28;20044;-82
2023/05/06 03:27:31;;;;;;;48.58;26.20;;;;;;;;;;4916757;29;20055;-84
2023/05/06 03:30:03;;;;;;;47.03;26.48;;;;;;;;;;4948398;28;20046;-83
2023/05/06 03:32:29;;;;;;;50.47;27.60;;;;;;;;;;4970561;28;20267;-81
2023/05/06 03:34:57;;;;;;;46.17;25.40;;;;;;;;;;4952810;28;20051;-82
2023/05/06 03:37:24;;;;;;;42.35;25.10;;;;;;;;;;4953435;28;20054;-81
2023/05/06 03:39:53;;;;;;;48.03;27.45;;;;;;;;;;4952546;28;20138;-83
2023/05/06 03:42:24;;;;;;;45.58;25.80;;;;;;;;;;4935489;28;20043;-83
2023/05/06 03:44:50;;;;;;;48.72;25.90;;;;;;;;;;4951120;28;20111;-83
2023/05/06 03:47:17;;;;;;;44.88;25.55;;;;;;;;;;4951960;28;20042;-83
2023/05/06 03:49:44;;;;;;;47.33;26.05;;;;;;;;;;4934785;28;20067;-83
2023/05/06 03:52:11;;;;;;;46.42;26.38;;;;;;;;;;4958904;28;20482;-82
2023/05/06 03:54:38;;;;;;;48.92;26.20;;;;;;;;;;4944423;29;20533;-80
2023/05/06 03:57:06;;;;;;;49.67;27.20;;;;;;;;;;4959373;28;20070;-82
2023/05/06 03:59:32;;;;;;;48.67;27.23;;;;;;;;;;4955389;28;20051;-83
2023/05/06 04:02:01;;;;;;;50.28;26.80;;;;;;;;;;4954323;28;20526;-83
2023/05/06 04:04:28;;;;;;;50.03;26.85;;;;;;;;;;4954725;28;20047;-84
2023/05/06 04:06:55;;;;;;;51.33;26.77;;;;;;;;;;4971052;28;20047;-83
2023/05/06 04:09:22;;;;;;;53.65;26.48;;;;;;;;;;4954608;28;20036;-82
2023/05/06 04:11:51;;;;;;;50.40;26.83;;;;;;;;;;4954278;28;20050;-80
2023/05/06 04:14:20;;;;;;;56.03;26.98;;;;;;;;;;4971305;28;20042;-81
2023/05/06 04:16:47;;;;;;;49.60;27.15;;;;;;;;;;4943798;28;20140;-82
2023/05/06 04:19:17;;;;;;;51.92;26.88;;;;;;;;;;4945183;28;20047;-82
2023/05/06 04:21:45;;;;;;;43.83;25.30;;;;;;;;;;4956767;28;20063;-81
2023/05/06 04:24:14;;;;;;;48.83;26.67;;;;;;;;;;4949505;28;20045;-80
2023/05/06 04:26:41;;;;;;;47.10;25.90;;;;;;;;;;4945979;28;20084;-81
2023/05/06 04:29:08;;;;;;;50.35;26.75;;;;;;;;;;4945652;28;20150;-81
2023/05/06 04:31:41;;;;;;;49.17;26.13;;;;;;;;;;4963309;28;20587;-82
2023/05/06 04:34:11;;;;;;;46.88;25.42;;;;;;;;;;4970123;28;20294;-81
2023/05/06 04:36:38;;;;;;;46.05;24.75;;;;;;;;;;4948470;28;20054;-82
2023/05/06 04:39:25;;;;;;;47.55;24.20;;;;;;;;;;4947552;28;20078;-83
2023/05/06 04:41:51;;;;;;;41.70;24.13;;;;;;;;;;4951017;28;20106;-82
2023/05/06 04:44:26;;;;;;;42.95;23.70;;;;;;;;;;4936309;29;20051;-82
2023/05/06 04:46:52;;;;;;;41.33;24.75;;;;;;;;;;4970843;28;20071;-82
2023/05/06 04:49:19;;;;;;;42.05;24.67;;;;;;;;;;4953292;28;20055;-82
2023/05/06 04:51:49;;;;;;;43.53;24.33;;;;;;;;;;4945350;28;20050;-83
2023/05/06 04:54:17;;;;;;;39.33;24.08;;;;;;;;;;4952423;28;20043;-80
2023/05/06 04:56:44;;;;;;;41.35;24.95;;;;;;;;;;4950510;28;20071;-83
2023/05/06 04:59:12;;;;;;;51.60;24.58;;;;;;;;;;4952078;28;20071;-83
2023/05/06 05:01:41;;;;;;;43.90;24.23;;;;;;;;;;4937589;28;20060;-81
2023/05/06 05:04:08;;;;;;;38.55;23.58;;;;;;;;;;4959867;28;20038;-83
2023/05/06 05:06:35;;;;;;;45.10;24.83;;;;;;;;;;4953601;28;20116;-81
2023/05/06 05:09:02;;;;;;;40.55;23.20;;;;;;;;;;4944746;28;20114;-80
2023/05/06 05:11:28;;;;;;;43.28;24.05;;;;;;;;;;4953932;28;20063;-83
2023/05/06 05:13:57;;;;;;;38.03;22.73;;;;;;;;;;4950644;28;20051;-84
2023/05/06 05:16:27;;;;;;;38.53;23.27;;;;;;;;;;4955724;28;20111;-82
2023/05/06 05:18:54;;;;;;;38.38;21.98;;;;;;;;;;4958355;28;20205;-81
2023/05/06 05:21:26;;;;;;;37.20;21.98;;;;;;;;;;4954455;28;20039;-81
2023/05/06 05:23:54;;;;;;;36.63;21.80;;;;;;;;;;4961353;28;20043;-84
2023/05/06 05:26:20;;;;;;;33.55;20.05;;;;;;;;;;4961341;28;20043;-82
2023/05/06 05:28:50;;;;;;;35.58;21.88;;;;;;;;;;4949047;28;20059;-81
2023/05/06 05:31:19;;;;;;;35.85;20.90;;;;;;;;;;4947655;28;20055;-80
2023/05/06 05:33:46;;;;;;;33.58;19.23;;;;;;;;;;4946266;28;20440;-81
2023/05/06 05:36:15;;;;;;;32.63;19.33;;;;;;;;;;4955818;28;20044;-80
2023/05/06 05:38:44;;;;;;;31.23;18.58;;;;;;;;;;4944011;28;20118;-83
2023/05/06 05:41:13;;;;;;;34.25;19.10;;;;;;;;;;4961551;28;20051;-82
2023/05/06 05:43:43;;;;;;;34.63;19.85;;;;;;;;;;4951968;28;20629;-79
2023/05/06 05:46:10;;;;;;;29.23;19.23;;;;;;;;;;4957624;28;20051;-81
2023/05/06 05:48:38;;;;;;;30.92;19.13;;;;;;;;;;4959727;28;20147;-80
2023/05/06 05:51:08;;;;;;;29.27;18.98;;;;;;;;;;4942402;28;20126;-79
2023/05/06 05:53:35;;;;;;;33.65;18.98;;;;;;;;;;4932880;28;20054;-79
2023/05/06 05:56:03;;;;;;;30.30;18.38;;;;;;;;;;4925899;28;20079;-79
2023/05/06 05:58:30;;;;;;;31.27;18.08;;;;;;;;;;4938956;28;20392;-82
2023/05/06 06:00:58;;;;;;;29.40;16.95;;;;;;;;;;4929544;29;20055;-81
2023/05/06 06:03:25;;;;;;;26.90;16.80;;;;;;;;;;4930257;29;20067;-80
2023/05/06 06:05:54;;;;;;;18.52;13.25;;;;;;;;;;4945665;28;20488;-84
2023/05/06 06:08:25;;;;;;;23.63;13.48;;;;;;;;;;4933800;28;20106;-84
2023/05/06 06:10:51;;;;;;;21.50;13.35;;;;;;;;;;4943162;29;20080;-83
2023/05/06 06:13:22;;;;;;;22.90;14.25;;;;;;;;;;4939043;28;20457;-85
2023/05/06 06:15:51;;;;;;;22.55;14.30;;;;;;;;;;4949836;28;20054;-86
2023/05/06 06:18:19;;;;;;;22.83;14.75;;;;;;;;;;4946135;29;20070;-84
2023/05/06 06:20:46;;;;;;;22.23;13.43;;;;;;;;;;4961537;28;20749;-85
2023/05/06 06:23:13;;;;;;;21.30;13.63;;;;;;;;;;4949431;28;20047;-85
2023/05/06 06:25:39;;;;;;;21.13;13.65;;;;;;;;;;4951621;28;20051;-85
2023/05/06 06:28:06;;;;;;;21.40;13.38;;;;;;;;;;4968039;28;20051;-85
2023/05/06 06:30:32;;;;;;;20.15;13.15;;;;;;;;;;4951657;28;20111;-80
2023/05/06 06:33:00;;;;;;;21.23;11.85;;;;;;;;;;4951406;28;20067;-83
2023/05/06 06:35:30;;;;;;;15.40;10.13;;;;;;;;;;4964972;28;20600;-82
2023/05/06 06:37:56;;;;;;;17.13;9.70;;;;;;;;;;4941242;28;20142;-84
2023/05/06 06:40:23;;;;;;;20.52;9.70;;;;;;;;;;4932695;28;20110;-83
2023/05/06 06:42:50;;;;;;;15.15;9.50;;;;;;;;;;4946122;28;20050;-82
2023/05/06 06:45:36;;;;;;;15.02;9.60;;;;;;;;;;4929281;28;20431;-84
2023/05/06 06:48:03;;;;;;;15.15;9.60;;;;;;;;;;4931354;28;20107;-83
2023/05/06 06:50:33;;;;;;;15.20;10.15;;;;;;;;;;4935962;28;20039;-82
2023/05/06 06:53:00;;;;;;;15.82;9.98;;;;;;;;;;4932979;28;20047;-84
2023/05/06 06:55:27;;;;;;;16.27;10.18;;;;;;;;;;4947361;28;20047;-81
2023/05/06 06:57:54;;;;;;;15.80;10.80;;;;;;;;;;4937541;28;20121;-84
2023/05/06 07:00:23;;;;;;;19.90;10.88;;;;;;;;;;4942633;28;20071;-83
2023/05/06 07:02:50;;;;;;;17.83;11.10;;;;;;;;;;4936537;28;20059;-80
2023/05/06 07:05:19;;;;;;;20.55;11.23;;;;;;;;;;4940070;28;20051;-86
2023/05/06 07:07:45;;;;;;;17.65;11.10;;;;;;;;;;4953602;28;20530;-84
2023/05/06 07:10:21;;;;;;;20.33;11.30;;;;;;;;;;4935360;28;20131;-85
2023/05/06 07:12:47;;;;;;;20.73;11.70;;;;;;;;;;4936110;28;20415;-82
2023/05/06 07:15:16;;;;;;;15.00;11.27;;;;;;;;;;4946513;28;20134;-82
2023/05/06 07:17:43;;;;;;;17.10;11.98;;;;;;;;;;4937311;28;20066;-78
2023/05/06 07:20:10;;;;;;;19.35;12.00;;;;;;;;;;4949345;28;20055;-81
2023/05/06 07:22:36;;;;;;;19.67;11.82;;;;;;;;;;4948494;28;20055;-79
2023/05/06 07:25:03;;;;;;;18.52;11.77;;;;;;;;;;4936053;28;20050;-78
2023/05/06 07:27:30;;;;;;;20.10;12.45;;;;;;;;;;4934525;28;20074;-79
2023/05/06 07:29:57;;;;;;;20.05;12.68;;;;;;;;;;4937461;28;20583;-81
2023/05/06 07:32:23;;;;;;;23.25;12.65;;;;;;;;;;4935097;28;20078;-81
2023/05/06 07:34:50;;;;;;;25.20;13.23;;;;;;;;;;4953647;28;20601;-78
2023/05/06 07:37:16;;;;;;;18.35;12.45;;;;;;;;;;4941898;28;20089;-79
2023/05/06 07:39:43;;;;;;;19.02;12.52;;;;;;;;;;4955185;28;20145;-79
2023/05/06 07:42:11;;;;;;;21.45;13.48;;;;;;;;;;4950046;28;20313;-82
2023/05/06 07:44:38;;;;;;;20.60;13.75;;;;;;;;;;4936234;28;20055;-80
2023/05/06 07:47:05;;;;;;;19.83;13.05;;;;;;;;;;4950476;28;20055;-78
2023/05/06 07:49:33;;;;;;;23.40;13.18;;;;;;;;;;4934584;28;20409;-82
2023/05/06 07:52:03;;;;;;;20.83;14.02;;;;;;;;;;4937244;28;20106;-79
2023/05/06 07:54:30;;;;;;;24.38;15.73;;;;;;;;;;4951488;28;20075;-81
2023/05/06 07:56:57;;;;;;;26.55;17.17;;;;;;;;;;4933913;28;20079;-81
2023/05/06 07:59:23;;;;;;;31.73;18.50;;;;;;;;;;4944582;28;20657;-81
2023/05/06 08:01:50;;;;;;;32.17;19.70;;;;;;;;;;4940465;29;20051;-81
2023/05/06 08:04:16;;;;;;;37.28;21.20;;;;;;;;;;4949192;28;20048;-80
2023/05/06 08:06:43;;;;;;;33.83;21.50;;;;;;;;;;4927070;28;20313;-79
2023/05/06 08:09:11;;;;;;;36.83;22.40;;;;;;;;;;4950844;28;20103;-81
2023/05/06 08:11:48;;;;;;;39.10;22.30;;;;;;;;;;4931139;28;20066;-82
2023/05/06 08:14:15;;;;;;;40.72;23.95;;;;;;;;;;4959937;28;20051;-82
2023/05/06 08:16:41;;;;;;;44.08;24.75;;;;;;;;;;4951379;28;20057;-80
2023/05/06 08:19:08;;;;;;;41.65;25.00;;;;;;;;;;4948986;28;20138;-82
2023/05/06 08:21:34;;;;;;;38.75;24.02;;;;;;;;;;4948478;28;20047;-83
2023/05/06 08:24:02;;;;;;;45.38;23.42;;;;;;;;;;4951844;28;20047;-82
2023/05/06 08:26:28;;;;;;;36.67;21.90;;;;;;;;;;4949135;28;20056;-82
2023/05/06 08:28:56;;;;;;;31.50;19.92;;;;;;;;;;4934088;28;20135;-83
2023/05/06 08:31:23;;;;;;;32.67;19.75;;;;;;;;;;4970036;28;20051;-84
2023/05/06 08:33:50;;;;;;;31.30;18.45;;;;;;;;;;4935624;28;20077;-82
2023/05/06 08:36:20;;;;;;;27.98;17.20;;;;;;;;;;4933631;28;20058;-82
2023/05/06 08:38:49;;;;;;;30.05;18.98;;;;;;;;;;4940706;28;20056;-82
2023/05/06 08:41:20;;;;;;;28.02;19.10;;;;;;;;;;4934477;28;20106;-84
2023/05/06 08:43:47;;;;;;;28.08;18.73;;;;;;;;;;4922448;28;20066;-84
2023/05/06 08:46:14;;;;;;;26.67;18.45;;;;;;;;;;4959038;28;20070;-79
2023/05/06 08:48:41;;;;;;;32.25;19.90;;;;;;;;;;4962280;28;20708;-84
2023/05/06 08:51:08;;;;;;;31.42;19.45;;;;;;;;;;4972348;28;20051;-80
2023/05/06 08:53:35;;;;;;;28.55;20.05;;;;;;;;;;4940494;28;20048;-84
2023/05/06 08:56:03;;;;;;;33.88;22.08;;;;;;;;;;4937176;28;20055;-80
2023/05/06 08:58:32;;;;;;;33.97;23.42;;;;;;;;;;4951105;28;20070;-81
2023/05/06 09:00:59;;;;;;;39.50;25.48;;;;;;;;;;4952222;28;20052;-80
2023/05/06 09:03:25;;;;;;;37.08;24.05;;;;;;;;;;4948801;28;20111;-80
2023/05/06 09:05:53;;;;;;;37.55;25.05;;;;;;;;;;4920228;28;20031;-81
2023/05/06 09:08:19;;;;;;;39.35;26.45;;;;;;;;;;4947071;28;20436;-81
2023/05/06 09:10:46;;;;;;;38.03;26.20;;;;;;;;;;4933365;28;20044;-80
2023/05/06 09:13:14;;;;;;;36.47;26.23;;;;;;;;;;4944138;28;20046;-80
2023/05/06 09:15:41;;;;;;;37.97;25.65;;;;;;;;;;4945700;28;20524;-82
2023/05/06 09:18:08;;;;;;;37.10;25.67;;;;;;;;;;4949251;28;20463;-81
2023/05/06 09:20:38;;;;;;;34.83;24.05;;;;;;;;;;4957457;28;20078;-81
2023/05/06 09:23:07;;;;;;;33.00;23.35;;;;;;;;;;4931141;28;20638;-80
2023/05/06 09:25:34;;;;;;;32.22;22.38;;;;;;;;;;4960943;28;20058;-81
2023/05/06 09:28:04;;;;;;;27.10;19.98;;;;;;;;;;4950121;28;20047;-81
2023/05/06 09:30:31;;;;;;;27.15;19.55;;;;;;;;;;4951650;28;20142;-80
2023/05/06 09:32:58;;;;;;;23.52;17.10;;;;;;;;;;4946056;28;20452;-81
2023/05/06 09:35:28;;;;;;;24.30;17.60;;;;;;;;;;4953591;28;20408;-84
2023/05/06 09:37:55;;;;;;;20.38;15.30;;;;;;;;;;4945421;28;20051;-80
2023/05/06 09:40:22;;;;;;;27.27;17.35;;;;;;;;;;4945786;28;20047;-80
2023/05/06 09:42:50;;;;;;;21.52;15.15;;;;;;;;;;4937231;28;20056;-79
2023/05/06 09:45:17;;;;;;;19.60;14.05;;;;;;;;;;4918635;28;20079;-82
2023/05/06 09:47:48;;;;;;;17.70;13.45;;;;;;;;;;4961750;28;20385;-83
2023/05/06 09:50:17;;;;;;;15.73;11.63;;;;;;;;;;4958112;28;20078;-83
2023/05/06 09:52:46;;;;;;;16.38;11.77;;;;;;;;;;4930340;28;20075;-82
2023/05/06 09:55:20;;;;;;;17.50;13.77;;;;;;;;;;4927262;29;20040;-83
2023/05/06 09:57:48;;;;;;;18.30;12.30;;;;;;;;;;4941836;28;20658;-79
2023/05/06 10:00:15;;;;;;;16.10;11.77;;;;;;;;;;4968016;28;20070;-82
2023/05/06 10:02:43;;;;;;;15.50;10.88;;;;;;;;;;4954127;28;20058;-82
2023/05/06 10:05:11;;;;;;;14.10;10.07;;;;;;;;;;4944210;28;20051;-80
2023/05/06 10:07:39;;;;;;;14.52;9.88;;;;;;;;;;4963736;28;20052;-82
2023/05/06 10:10:07;;;;;;;15.73;11.05;;;;;;;;;;4932382;28;20058;-80
2023/05/06 10:12:37;;;;;;;15.27;9.88;;;;;;;;;;4949011;28;20078;-83
2023/05/06 10:15:04;;;;;;;14.07;10.60;;;;;;;;;;4948173;28;20054;-82
2023/05/06 10:17:31;;;;;;;14.60;10.55;;;;;;;;;;4948650;28;20094;-82
2023/05/06 10:19:59;;;;;;;14.23;10.13;;;;;;;;;;4930190;29;20051;-83
2023/05/06 10:22:40;;;;;;;10.38;7.30;;;;;;;;;;4954543;28;20047;-80
2023/05/06 10:25:19;;;;;;;14.50;9.93;;;;;;;;;;4961868;28;20098;-84
2023/05/06 10:27:46;;;;;;;12.93;9.10;;;;;;;;;;4950475;28;20062;-83
2023/05/06 10:30:15;;;;;;;13.57;8.43;;;;;;;;;;4944004;28;20134;-80
2023/05/06 10:32:43;;;;;;;11.32;8.30;;;;;;;;;;4935328;28;20505;-83
2023/05/06 10:35:28;;;;;;;10.95;8.40;;;;;;;;;;4930720;29;20059;-83
2023/05/06 10:37:56;;;;;;;12.35;8.25;;;;;;;;;;4940330;28;20055;-85
2023/05/06 10:40:25;;;;;;;14.20;9.07;;;;;;;;;;4954185;28;20329;-82
2023/05/06 10:43:16;;;;;;;12.40;8.73;;;;;;;;;;4954053;28;20055;-78
2023/05/06 10:46:01;;;;;;;13.38;8.75;;;;;;;;;;4943734;28;20047;-82
2023/05/06 10:48:28;;;;;;;14.13;8.30;;;;;;;;;;4932597;28;20074;-84
2023/05/06 10:51:13;;;;;;;12.38;8.30;;;;;;;;;;4946364;28;20050;-83
2023/05/06 10:54:01;;;;;;;12.30;8.63;;;;;;;;;;4948850;28;20585;-84
2023/05/06 10:56:34;;;;;;;15.07;9.10;;;;;;;;;;4961224;28;20082;-79
2023/05/06 10:59:09;;;;;;;12.18;8.82;;;;;;;;;;4945828;28;20122;-79
2023/05/06 11:01:36;;;;;;;13.23;9.85;;;;;;;;;;4941615;28;20059;-80
2023/05/06 11:04:17;;;;;;;12.68;9.25;;;;;;;;;;4947620;28;20051;-83
2023/05/06 11:06:48;;;;;;;13.35;9.20;;;;;;;;;;4934372;28;20082;-86
2023/05/06 11:09:18;;;;;;;15.40;9.82;;;;;;;;;;4928368;28;20062;-82
2023/05/06 11:11:46;;;;;;;12.98;8.75;;;;;;;;;;4953900;28;20094;-83
2023/05/06 11:14:13;;;;;;;16.13;8.93;;;;;;;;;;4951384;28;20066;-83
2023/05/06 11:16:46;;;;;;;10.93;7.85;;;;;;;;;;4935358;28;20055;-83
2023/05/06 11:19:42;;;;;;;12.63;8.60;;;;;;;;;;4950599;28;20067;-83
2023/05/06 11:22:28;;;;;;;12.07;8.52;;;;;;;;;;4952034;28;20070;-85
2023/05/06 11:24:58;;;;;;;9.13;6.70;;;;;;;;;;4938234;28;20051;-81
2023/05/06 11:27:26;;;;;;;8.70;6.57;;;;;;;;;;4956065;28;20102;-80
2023/05/06 11:29:52;;;;;;;8.88;5.28;;;;;;;;;;4944109;28;20078;-82
2023/05/06 11:32:23;;;;;;;9.18;5.45;;;;;;;;;;4953272;28;20047;-82
2023/05/06 11:34:53;;;;;;;7.07;5.47;;;;;;;;;;4938144;28;20063;-80
2023/05/06 11:37:24;;;;;;;10.10;6.32;;;;;;;;;;4940878;28;20115;-82
2023/05/06 11:39:54;;;;;;;8.75;6.03;;;;;;;;;;4945216;28;20117;-83
2023/05/06 11:42:25;;;;;;;11.10;6.45;;;;;;;;;;4950389;28;20063;-83
2023/05/06 11:44:54;;;;;;;9.68;5.68;;;;;;;;;;4937193;28;20275;-81
2023/05/06 11:47:35;;;;;;;7.20;5.13;;;;;;;;;;4940483;28;20097;-80
2023/05/06 11:50:06;;;;;;;8.25;5.55;;;;;;;;;;4944363;28;20121;-84
2023/05/06 11:52:34;;;;;;;5.38;4.03;;;;;;;;;;4953873;28;20044;-83
2023/05/06 11:55:01;;;;;;;6.13;4.50;;;;;;;;;;4941221;28;20059;-80
2023/05/06 11:57:28;;;;;;;7.88;5.65;;;;;;;;;;4947040;28;20075;-80
2023/05/06 11:59:55;;;;;;;6.63;4.43;;;;;;;;;;4961740;28;20463;-82
2023/05/06 12:02:21;;;;;;;4.65;3.45;;;;;;;;;;4961376;28;20056;-79
2023/05/06 12:04:51;;;;;;;5.03;3.50;;;;;;;;;;4950970;28;20075;-81
2023/05/06 12:07:18;;;;;;;5.75;3.60;;;;;;;;;;4927388;28;20055;-81
2023/05/06 12:09:46;;;;;;;8.00;4.30;;;;;;;;;;4934997;28;20073;-82
2023/05/06 12:12:17;;;;;;;10.55;5.65;;;;;;;;;;4937621;28;20079;-82
2023/05/06 12:14:45;;;;;;;8.70;5.53;;;;;;;;;;4952599;28;20044;-83
2023/05/06 12:17:11;;;;;;;11.50;6.07;;;;;;;;;;4936980;28;20162;-84
2023/05/06 12:19:38;;;;;;;7.43;5.40;;;;;;;;;;4933896;28;20055;-83
2023/05/06 12:22:13;;;;;;;7.93;4.50;;;;;;;;;;4942895;28;20059;-80
2023/05/06 12:24:40;;;;;;;10.02;7.18;;;;;;;;;;4961497;28;20072;-81
2023/05/06 12:27:07;;;;;;;12.95;7.30;;;;;;;;;;4962290;28;20529;-83
2023/05/06 12:29:35;;;;;;;10.73;6.90;;;;;;;;;;4966697;28;20043;-80
2023/05/06 12:32:09;;;;;;;8.80;6.03;;;;;;;;;;4975327;28;20070;-79
2023/05/06 12:34:37;;;;;;;10.30;5.50;;;;;;;;;;4933760;28;20936;-84
2023/05/06 12:37:04;;;;;;;7.97;5.20;;;;;;;;;;4961837;28;20051;-83
2023/05/06 12:39:37;;;;;;;8.23;5.10;;;;;;;;;;4935415;28;20516;-81
2023/05/06 12:42:05;;;;;;;10.05;6.45;;;;;;;;;;4955136;28;20139;-83
2023/05/06 12:44:35;;;;;;;7.72;6.03;;;;;;;;;;4956681;28;20051;-85
2023/05/06 12:47:03;;;;;;;10.98;6.05;;;;;;;;;;4954561;29;20504;-82
2023/05/06 12:49:52;;;;;;;12.32;6.60;;;;;;;;;;4936577;28;20110;-83
2023/05/06 12:52:23;;;;;;;9.93;7.13;;;;;;;;;;4946628;28;20082;-82
2023/05/06 12:54:51;;;;;;;13.70;8.02;;;;;;;;;;4941151;28;20082;-84
2023/05/06 12:57:18;;;;;;;10.00;7.50;;;;;;;;;;4938268;28;20051;-76
2023/05/06 12:59:45;;;;;;;9.23;6.38;;;;;;;;;;4933028;28;20393;-75
2023/05/06 13:02:12;;;;;;;8.38;6.38;;;;;;;;;;4927766;28;20048;-75
2023/05/06 13:04:39;;;;;;;8.35;6.20;;;;;;;;;;4940714;28;20085;-75
2023/05/06 13:07:06;;;;;;;7.38;5.60;;;;;;;;;;4951226;28;20044;-76
2023/05/06 13:09:35;;;;;;;8.05;5.80;;;;;;;;;;4941017;28;20035;-81
2023/05/06 13:12:03;;;;;;;6.57;5.40;;;;;;;;;;4960125;28;20071;-81
2023/05/06 13:14:30;;;;;;;6.72;4.60;;;;;;;;;;4950677;28;20051;-81
2023/05/06 13:16:59;;;;;;;8.98;5.25;;;;;;;;;;4950225;28;20066;-80
2023/05/06 13:19:28;;;;;;;6.32;4.65;;;;;;;;;;4950752;28;20043;-81
2023/05/06 13:21:59;;;;;;;7.88;5.15;;;;;;;;;;4962150;28;20139;-86
2023/05/06 13:24:26;;;;;;;10.23;5.30;;;;;;;;;;4950722;28;20047;-82
2023/05/06 13:26:52;;;;;;;11.40;5.25;;;;;;;;;;4942755;28;20074;-80
2023/05/06 13:29:23;;;;;;;7.60;5.03;;;;;;;;;;4958455;28;20055;-79
2023/05/06 13:31:50;;;;;;;6.72;5.25;;;;;;;;;;4983237;28;20051;-81
2023/05/06 13:34:17;;;;;;;8.48;5.13;;;;;;;;;;4952499;28;20030;-79
2023/05/06 13:36:43;;;;;;;8.07;4.75;;;;;;;;;;4961713;28;20039;-81
2023/05/06 13:39:10;;;;;;;7.97;4.93;;;;;;;;;;4967738;28;20062;-76
2023/05/06 13:41:37;;;;;;;6.97;5.10;;;;;;;;;;4968617;28;20046;-77
2023/05/06 13:44:05;;;;;;;8.93;4.88;;;;;;;;;;4970251;28;20123;-78
2023/05/06 13:46:31;;;;;;;4.93;3.50;;;;;;;;;;4970233;28;20050;-77
2023/05/06 13:48:58;;;;;;;4.53;3.53;;;;;;;;;;4967058;28;20048;-78
2023/05/06 13:51:29;;;;;;;4.68;3.72;;;;;;;;;;4980279;28;20047;-79
2023/05/06 13:53:56;;;;;;;5.30;3.50;;;;;;;;;;4966473;28;20039;-78
2023/05/06 13:56:22;;;;;;;5.90;3.92;;;;;;;;;;4960706;28;20569;-77
2023/05/06 13:58:49;;;;;;;6.32;4.20;;;;;;;;;;4964037;28;20067;-79
2023/05/06 14:01:15;;;;;;;5.68;3.83;;;;;;;;;;4970445;28;20106;-83
2023/05/06 14:03:45;;;;;;;10.05;3.63;;;;;;;;;;4958870;28;20043;-83
2023/05/06 14:06:12;;;;;;;4.40;3.30;;;;;;;;;;4966099;28;20047;-82
2023/05/06 14:08:38;;;;;;;4.07;3.05;;;;;;;;;;4963668;28;20107;-84
2023/05/06 14:11:05;;;;;;;6.53;2.80;;;;;;;;;;4968819;28;20043;-79
2023/05/06 14:13:35;;;;;;;2.88;2.00;;;;;;;;;;4973730;28;20102;-79
2023/05/06 14:16:01;;;;;;;2.42;1.95;;;;;;;;;;4967582;28;20070;-80
2023/05/06 14:18:28;;;;;;;5.03;2.05;;;;;;;;;;4954474;28;20054;-79
2023/05/06 14:20:55;;;;;;;3.40;2.22;;;;;;;;;;4953820;28;20421;-82
2023/05/06 14:23:21;;;;;;;3.40;1.92;;;;;;;;;;4957851;28;20062;-80
2023/05/06 14:25:48;;;;;;;3.40;2.25;;;;;;;;;;4952418;28;20046;-83
2023/05/06 14:28:14;;;;;;;4.18;2.45;;;;;;;;;;4931987;29;20509;-83
2023/05/06 14:30:41;;;;;;;4.65;2.75;;;;;;;;;;4946615;29;20036;-80
2023/05/06 14:33:08;;;;;;;2.92;2.60;;;;;;;;;;4985321;28;20062;-80